Time;durP1;ratioP1;P1;durP2;ratioP2;P2;SDS_P1;SDS_P2;PMS_P1;PMS_P2;Temp;Humidity;BMP_temperature;BMP_pressure;BME280_temperature;BME280_humidity;BME280_pressure;Samples;Min_cycle;Max_cycle;Signal;HPM_P1;HPM_P2
2022/01/10 00:01:43;;;;;;;;;;;1.60;99.90;;;;;;5071878;28;19924;-52
2022/01/10 00:04:10;;;;;;;;;;;1.60;99.90;;;;;;5061969;28;19986;-52
2022/01/10 00:06:38;;;;;;;;;;;1.60;99.90;;;;;;5070418;28;19924;-52
2022/01/10 00:09:05;;;;;;;;;;;1.60;99.90;;;;;;5058470;28;19925;-52
2022/01/10 00:11:32;;;;;;;;;;;1.70;99.90;;;;;;5052200;28;19970;-52
2022/01/10 00:13:58;;;;;;;;;;;1.60;99.90;;;;;;5052283;28;19925;-52
2022/01/10 00:16:25;;;;;;;;;;;1.70;99.90;;;;;;5062346;28;20291;-52
2022/01/10 00:18:52;;;;;;;;;;;1.70;99.90;;;;;;5071457;28;19924;-52
2022/01/10 00:21:19;;;;;;;;;;;1.70;99.90;;;;;;5072062;28;19974;-52
2022/01/10 00:23:47;;;;;;;;;;;1.70;99.90;;;;;;5062675;28;19925;-52
2022/01/10 00:26:13;;;;;;;;;;;1.80;99.90;;;;;;5052035;28;19975;-52
2022/01/10 00:28:40;;;;;;;;;;;1.90;99.90;;;;;;5062913;28;19970;-52
2022/01/10 00:31:07;;;;;;;;;;;1.80;99.90;;;;;;5065635;28;19983;-52
2022/01/10 00:33:34;;;;;;;;;;;1.80;99.90;;;;;;5069428;28;20309;-53
2022/01/10 00:36:01;;;;;;;;;;;1.80;99.90;;;;;;5072183;28;19970;-52
2022/01/10 00:38:27;;;;;;;;;;;1.80;99.90;;;;;;5071939;28;19925;-52
2022/01/10 00:40:55;;;;;;;;;;;1.70;99.90;;;;;;5071807;28;20309;-53
2022/01/10 00:43:31;;;;;;;;;;;1.70;99.90;;;;;;5071403;28;19928;-52
2022/01/10 00:45:58;;;;;;;;;;;1.70;99.90;;;;;;5071839;28;19929;-52
2022/01/10 00:48:24;;;;;;;;;;;1.70;99.90;;;;;;5065302;28;20418;-52
2022/01/10 00:50:51;;;;;;;;;;;1.70;99.90;;;;;;5062590;28;19933;-52
2022/01/10 00:53:18;;;;;;;;;;;1.70;99.90;;;;;;5074899;28;19925;-52
2022/01/10 00:55:45;;;;;;;;;;;1.60;99.90;;;;;;5075322;28;20030;-52
2022/01/10 00:58:13;;;;;;;;;;;1.60;99.90;;;;;;5074806;28;19929;-53
2022/01/10 01:00:40;;;;;;;;;;;1.70;99.90;;;;;;5066979;28;19928;-53
2022/01/10 01:03:06;;;;;;;;;;;1.60;99.90;;;;;;5074672;28;19925;-52
2022/01/10 01:05:38;;;;;;;;;;;1.40;99.90;;;;;;5070786;28;19950;-52
2022/01/10 01:08:07;;;;;;;;;;;1.50;99.90;;;;;;5073653;28;19924;-52
2022/01/10 01:13:24;;;;;;;;;;;1.50;99.90;;;;;;5073288;28;19927;-52
2022/01/10 01:16:09;;;;;;;;;;;1.40;99.90;;;;;;5074672;28;19993;-52
2022/01/10 01:19:12;;;;;;;;;;;1.40;99.90;;;;;;5074837;28;19925;-52
2022/01/10 01:24:11;;;;;;;;;;;1.50;99.90;;;;;;5062070;28;19930;-53
2022/01/10 01:26:39;;;;;;;;;;;1.50;99.90;;;;;;5074673;28;19924;-53
2022/01/10 01:29:08;;;;;;;;;;;1.50;99.90;;;;;;5074263;28;19924;-52
2022/01/10 01:31:36;;;;;;;;;;;1.40;99.90;;;;;;5074952;28;19928;-53
2022/01/10 01:34:02;;;;;;;;;;;1.40;99.90;;;;;;5073925;28;20378;-53
2022/01/10 01:36:31;;;;;;;;;;;1.40;99.90;;;;;;5074168;28;20053;-53
2022/01/10 01:38:58;;;;;;;;;;;1.40;99.90;;;;;;5073794;28;19970;-53
2022/01/10 01:41:36;;;;;;;;;;;1.40;99.90;;;;;;5074281;28;19924;-53
2022/01/10 01:44:03;;;;;;;;;;;1.40;99.90;;;;;;5074103;28;20389;-53
2022/01/10 01:46:33;;;;;;;;;;;1.40;99.90;;;;;;5074238;28;20013;-53
2022/01/10 01:49:00;;;;;;;;;;;1.40;99.90;;;;;;5072817;28;19929;-53
2022/01/10 01:51:27;;;;;;;;;;;1.30;99.90;;;;;;5074695;28;19978;-53
2022/01/10 01:53:54;;;;;;;;;;;1.30;99.90;;;;;;5074011;28;19924;-53
2022/01/10 01:56:21;;;;;;;;;;;1.40;99.90;;;;;;5074129;28;19989;-53
2022/01/10 01:58:47;;;;;;;;;;;1.40;99.90;;;;;;5073937;28;20333;-53
2022/01/10 02:01:16;;;;;;;;;;;1.40;99.90;;;;;;5065668;28;19970;-53
2022/01/10 02:03:44;;;;;;;;;;;1.30;99.90;;;;;;5073115;28;19925;-52
2022/01/10 02:06:11;;;;;;;;;;;1.30;99.90;;;;;;5074165;28;19932;-52
2022/01/10 02:08:38;;;;;;;;;;;1.40;99.90;;;;;;5073408;28;19928;-52
2022/01/10 02:11:06;;;;;;;;;;;1.40;99.90;;;;;;5076226;28;19924;-52
2022/01/10 02:13:33;;;;;;;;;;;1.40;99.90;;;;;;5073565;28;19924;-51
2022/01/10 02:16:02;;;;;;;;;;;1.40;99.90;;;;;;5070087;28;20407;-52
2022/01/10 02:18:29;;;;;;;;;;;1.40;99.90;;;;;;5072304;28;19931;-52
2022/01/10 02:21:01;;;;;;;;;;;1.40;99.90;;;;;;5073106;28;20352;-52
2022/01/10 02:23:29;;;;;;;;;;;1.40;99.90;;;;;;5072921;28;19924;-52
2022/01/10 02:25:55;;;;;;;;;;;1.40;99.90;;;;;;5073871;28;19924;-52
2022/01/10 02:28:23;;;;;;;;;;;1.40;99.90;;;;;;5074219;28;20398;-52
2022/01/10 02:30:55;;;;;;;;;;;1.40;99.90;;;;;;5072999;28;19951;-52
2022/01/10 02:33:22;;;;;;;;;;;1.40;99.90;;;;;;5072913;28;19976;-52
2022/01/10 02:35:56;;;;;;;;;;;1.40;99.90;;;;;;5073132;28;20364;-52
2022/01/10 02:38:24;;;;;;;;;;;1.40;99.90;;;;;;5072734;28;19971;-52
2022/01/10 02:40:52;;;;;;;;;;;1.40;99.90;;;;;;5072745;28;20376;-52
2022/01/10 02:43:19;;;;;;;;;;;1.40;99.90;;;;;;5073267;28;19964;-53
2022/01/10 02:45:46;;;;;;;;;;;1.30;99.90;;;;;;5074496;28;19925;-52
2022/01/10 02:48:13;;;;;;;;;;;1.30;99.90;;;;;;5072172;28;20001;-53
2022/01/10 02:50:40;;;;;;;;;;;1.30;99.90;;;;;;5073457;28;19928;-53
2022/01/10 02:53:07;;;;;;;;;;;1.30;99.90;;;;;;5072934;28;19925;-52
2022/01/10 02:55:35;;;;;;;;;;;1.30;99.90;;;;;;5072702;28;20301;-53
2022/01/10 02:58:01;;;;;;;;;;;1.30;99.90;;;;;;5072138;28;19928;-52
2022/01/10 03:00:28;;;;;;;;;;;1.30;99.90;;;;;;5069565;28;20421;-52
2022/01/10 03:02:55;;;;;;;;;;;1.20;99.90;;;;;;5070073;28;19929;-52
2022/01/10 03:05:23;;;;;;;;;;;1.30;99.90;;;;;;5069386;28;19929;-52
2022/01/10 03:07:51;;;;;;;;;;;1.40;99.90;;;;;;5071294;28;19982;-52
2022/01/10 03:10:17;;;;;;;;;;;1.30;99.90;;;;;;5071796;28;19968;-52
2022/01/10 03:12:45;;;;;;;;;;;1.30;99.90;;;;;;5071932;28;19970;-52
2022/01/10 03:15:12;;;;;;;;;;;1.30;99.90;;;;;;5071840;28;19981;-52
2022/01/10 03:17:40;;;;;;;;;;;1.30;99.90;;;;;;5072297;28;19925;-52
2022/01/10 03:20:08;;;;;;;;;;;1.40;99.90;;;;;;5072395;28;19924;-52
2022/01/10 03:22:35;;;;;;;;;;;1.50;99.90;;;;;;5071679;28;20010;-53
2022/01/10 03:25:02;;;;;;;;;;;1.50;99.90;;;;;;5071172;28;19970;-52
2022/01/10 03:27:28;;;;;;;;;;;1.50;99.90;;;;;;5069153;28;19986;-52
2022/01/10 03:29:58;;;;;;;;;;;1.40;99.90;;;;;;5063248;28;20394;-51
2022/01/10 03:32:25;;;;;;;;;;;1.40;99.90;;;;;;5071501;28;20495;-52
2022/01/10 03:34:52;;;;;;;;;;;1.40;99.90;;;;;;5072366;28;19972;-52
2022/01/10 03:37:18;;;;;;;;;;;1.40;99.90;;;;;;5071971;28;19925;-52
2022/01/10 03:39:45;;;;;;;;;;;1.40;99.90;;;;;;5071854;28;20002;-52
2022/01/10 03:42:12;;;;;;;;;;;1.40;99.90;;;;;;5071752;28;20299;-52
2022/01/10 03:44:39;;;;;;;;;;;1.40;99.90;;;;;;5072264;28;20011;-52
2022/01/10 03:47:07;;;;;;;;;;;1.30;99.90;;;;;;5072114;28;19986;-52
2022/01/10 03:49:34;;;;;;;;;;;1.30;99.90;;;;;;5071768;28;19925;-53
2022/01/10 03:52:01;;;;;;;;;;;1.30;99.90;;;;;;5072071;28;19925;-52
2022/01/10 03:54:27;;;;;;;;;;;1.40;99.90;;;;;;5071150;28;19928;-53
2022/01/10 03:56:54;;;;;;;;;;;1.30;99.90;;;;;;5071483;28;20282;-53
2022/01/10 03:59:21;;;;;;;;;;;1.30;99.90;;;;;;5070121;28;20004;-52
2022/01/10 04:01:50;;;;;;;;;;;1.30;99.90;;;;;;5054439;28;19990;-52
2022/01/10 04:04:18;;;;;;;;;;;1.30;99.90;;;;;;5071880;28;19925;-52
2022/01/10 04:06:45;;;;;;;;;;;1.30;99.90;;;;;;5071872;28;19924;-52
2022/01/10 04:09:12;;;;;;;;;;;1.30;99.90;;;;;;5071341;28;19928;-52
2022/01/10 04:11:38;;;;;;;;;;;1.30;99.90;;;;;;5071382;28;19924;-52
2022/01/10 04:14:05;;;;;;;;;;;1.30;99.90;;;;;;5071633;28;19924;-52
2022/01/10 04:16:32;;;;;;;;;;;1.20;99.90;;;;;;5071981;28;19932;-52
2022/01/10 04:18:59;;;;;;;;;;;1.20;99.90;;;;;;5071321;28;19947;-52
2022/01/10 04:21:27;;;;;;;;;;;1.20;99.90;;;;;;5071722;28;19978;-52
2022/01/10 04:23:54;;;;;;;;;;;1.10;99.90;;;;;;5071349;28;19925;-52
2022/01/10 04:26:20;;;;;;;;;;;1.20;99.90;;;;;;5073415;28;19925;-52
2022/01/10 04:28:47;;;;;;;;;;;1.10;99.90;;;;;;5075434;28;19925;-52
2022/01/10 04:31:14;;;;;;;;;;;1.10;99.90;;;;;;5075319;28;19925;-52
2022/01/10 04:33:40;;;;;;;;;;;1.20;99.90;;;;;;5074786;28;19924;-52
2022/01/10 04:36:07;;;;;;;;;;;1.30;99.90;;;;;;5074858;28;19975;-53
2022/01/10 04:38:35;;;;;;;;;;;1.30;99.90;;;;;;5070654;28;19981;-52
2022/01/10 04:41:02;;;;;;;;;;;1.30;99.90;;;;;;5061822;28;19929;-52
2022/01/10 04:43:29;;;;;;;;;;;1.30;99.90;;;;;;5055174;28;19932;-52
2022/01/10 04:45:56;;;;;;;;;;;1.30;99.90;;;;;;5059635;28;19954;-52
2022/01/10 04:48:23;;;;;;;;;;;1.10;99.90;;;;;;5061841;28;19928;-52
2022/01/10 04:51:12;;;;;;;;;;;1.10;99.90;;;;;;5069667;28;20394;-52
2022/01/10 04:53:40;;;;;;;;;;;1.10;99.90;;;;;;5074636;28;19940;-52
2022/01/10 04:56:07;;;;;;;;;;;1.20;99.90;;;;;;5075074;28;19929;-52
2022/01/10 04:58:35;;;;;;;;;;;1.10;99.90;;;;;;5074816;28;19971;-51
2022/01/10 05:01:03;;;;;;;;;;;1.10;99.90;;;;;;5068024;28;20016;-52
2022/01/10 05:03:30;;;;;;;;;;;1.10;99.90;;;;;;5054823;28;19928;-52
2022/01/10 05:05:57;;;;;;;;;;;1.10;99.90;;;;;;5068681;28;19970;-52
2022/01/10 05:08:24;;;;;;;;;;;1.10;99.90;;;;;;5074100;28;20386;-52
2022/01/10 05:10:52;;;;;;;;;;;1.20;99.90;;;;;;5074392;28;19970;-52
2022/01/10 05:13:20;;;;;;;;;;;1.20;99.90;;;;;;5074521;28;19925;-52
2022/01/10 05:15:48;;;;;;;;;;;1.20;99.90;;;;;;5074505;28;19925;-52
2022/01/10 05:18:15;;;;;;;;;;;1.10;99.90;;;;;;5074224;28;19924;-52
2022/01/10 05:20:42;;;;;;;;;;;1.20;99.90;;;;;;5077354;28;19978;-52
2022/01/10 05:23:09;;;;;;;;;;;1.20;99.90;;;;;;5074582;28;19928;-52
2022/01/10 05:25:39;;;;;;;;;;;1.20;99.90;;;;;;5073938;28;19970;-52
2022/01/10 05:28:08;;;;;;;;;;;1.30;99.90;;;;;;5074466;28;19971;-51
2022/01/10 05:30:35;;;;;;;;;;;1.30;99.90;;;;;;5073809;28;19924;-52
2022/01/10 05:33:02;;;;;;;;;;;1.30;99.90;;;;;;5074714;28;19924;-51
2022/01/10 05:38:32;;;;;;;;;;;1.10;99.90;;;;;;5063197;28;20282;-52
2022/01/10 05:40:59;;;;;;;;;;;1.20;99.90;;;;;;5074102;28;19925;-51
2022/01/10 05:43:27;;;;;;;;;;;1.20;99.90;;;;;;5073733;28;20386;-52
2022/01/10 05:45:54;;;;;;;;;;;1.20;99.90;;;;;;5066802;28;19925;-52
2022/01/10 05:48:25;;;;;;;;;;;1.20;99.90;;;;;;5069262;28;19978;-51
2022/01/10 05:50:52;;;;;;;;;;;1.20;99.90;;;;;;5061993;28;20464;-52
2022/01/10 05:53:19;;;;;;;;;;;1.10;99.90;;;;;;5064015;28;19924;-52
2022/01/10 05:55:46;;;;;;;;;;;1.00;99.90;;;;;;5073825;28;19924;-51
2022/01/10 06:07:24;;;;;;;;;;;1.10;99.90;;;;;;5073559;28;19926;-51
2022/01/10 06:09:51;;;;;;;;;;;1.10;99.90;;;;;;5073419;28;19928;-52
2022/01/10 06:12:17;;;;;;;;;;;1.00;99.90;;;;;;5072910;28;19946;-52
2022/01/10 06:14:44;;;;;;;;;;;1.10;99.90;;;;;;5073197;28;19986;-51
2022/01/10 06:17:11;;;;;;;;;;;1.10;99.90;;;;;;5072888;28;19924;-52
2022/01/10 06:19:37;;;;;;;;;;;1.10;99.90;;;;;;5072870;28;19994;-52
2022/01/10 06:22:05;;;;;;;;;;;1.10;99.90;;;;;;5073686;28;20509;-52
2022/01/10 06:24:33;;;;;;;;;;;1.30;99.90;;;;;;5072104;28;20041;-52
2022/01/10 06:26:59;;;;;;;;;;;1.30;99.90;;;;;;5073322;28;19977;-52
2022/01/10 06:29:26;;;;;;;;;;;1.30;99.90;;;;;;5073416;28;19928;-52
2022/01/10 06:31:53;;;;;;;;;;;1.30;99.90;;;;;;5073300;28;20006;-52
2022/01/10 06:34:19;;;;;;;;;;;1.30;99.90;;;;;;5072724;28;19924;-52
2022/01/10 06:36:46;;;;;;;;;;;1.20;99.90;;;;;;5073613;28;19978;-52
2022/01/10 06:39:13;;;;;;;;;;;1.30;99.90;;;;;;5073169;28;19982;-52
2022/01/10 06:41:41;;;;;;;;;;;1.30;99.90;;;;;;5073294;28;19925;-52
2022/01/10 06:44:08;;;;;;;;;;;1.30;99.90;;;;;;5071177;28;19928;-52
2022/01/10 06:46:35;;;;;;;;;;;1.40;99.90;;;;;;5071234;28;20555;-52
2022/01/10 06:49:02;;;;;;;;;;;1.40;99.90;;;;;;5066899;28;19970;-52
2022/01/10 06:51:28;;;;;;;;;;;1.40;99.90;;;;;;5074491;28;19951;-52
2022/01/10 06:53:55;;;;;;;;;;;1.30;99.90;;;;;;5064820;28;19929;-52
2022/01/10 06:56:22;;;;;;;;;;;1.30;99.90;;;;;;5064352;28;19929;-51
2022/01/10 06:58:50;;;;;;;;;;;1.30;99.90;;;;;;5052790;28;19928;-52
2022/01/10 07:01:19;;;;;;;;;;;1.30;99.90;;;;;;5071015;28;20398;-52
2022/01/10 07:03:45;;;;;;;;;;;1.20;99.90;;;;;;5076831;28;19924;-53
2022/01/10 07:06:12;;;;;;;;;;;1.30;99.90;;;;;;5072812;28;20356;-52
2022/01/10 07:08:39;;;;;;;;;;;1.20;99.90;;;;;;5072534;28;20348;-51
2022/01/10 07:11:06;;;;;;;;;;;1.30;99.90;;;;;;5072566;28;19970;-52
2022/01/10 07:13:33;;;;;;;;;;;1.30;99.90;;;;;;5072664;28;19928;-52
2022/01/10 07:16:01;;;;;;;;;;;1.30;99.90;;;;;;5072178;28;19932;-52
2022/01/10 07:18:27;;;;;;;;;;;1.20;99.90;;;;;;5072802;28;20472;-51
2022/01/10 07:20:54;;;;;;;;;;;1.20;99.90;;;;;;5071902;28;19929;-52
2022/01/10 07:23:22;;;;;;;;;;;1.30;99.90;;;;;;5071561;28;19924;-52
2022/01/10 07:25:49;;;;;;;;;;;1.30;99.90;;;;;;5063541;28;20464;-52
2022/01/10 07:28:16;;;;;;;;;;;1.30;99.90;;;;;;5071488;28;19924;-52
2022/01/10 07:30:43;;;;;;;;;;;1.40;99.90;;;;;;5071756;28;19985;-52
2022/01/10 07:33:11;;;;;;;;;;;1.40;99.90;;;;;;5073020;28;19950;-52
2022/01/10 07:35:38;;;;;;;;;;;1.40;99.90;;;;;;5072861;28;19924;-52
2022/01/10 07:38:04;;;;;;;;;;;1.40;99.90;;;;;;5070499;28;20414;-52
2022/01/10 07:40:31;;;;;;;;;;;1.40;99.90;;;;;;5070351;28;19986;-52
2022/01/10 07:43:01;;;;;;;;;;;1.40;99.90;;;;;;5062063;28;19978;-52
2022/01/10 07:45:28;;;;;;;;;;;1.50;99.90;;;;;;5072330;28;19930;-51
2022/01/10 07:47:55;;;;;;;;;;;1.40;99.90;;;;;;5056394;28;20010;-52
2022/01/10 07:50:23;;;;;;;;;;;1.40;99.90;;;;;;5052201;28;19954;-55
2022/01/10 07:52:49;;;;;;;;;;;1.40;99.90;;;;;;5058140;28;19978;-53
2022/01/10 07:55:16;;;;;;;;;;;1.40;99.90;;;;;;5071880;28;19986;-53
2022/01/10 07:57:43;;;;;;;;;;;1.50;99.90;;;;;;5072141;28;19925;-53
2022/01/10 08:00:10;;;;;;;;;;;1.50;99.90;;;;;;5072205;28;19924;-53
2022/01/10 08:02:37;;;;;;;;;;;1.60;99.90;;;;;;5071475;28;19924;-52
2022/01/10 08:05:05;;;;;;;;;;;1.60;99.90;;;;;;5060204;28;19971;-51
2022/01/10 08:07:33;;;;;;;;;;;1.70;99.90;;;;;;5058297;28;20023;-52
2022/01/10 08:09:59;;;;;;;;;;;1.70;99.90;;;;;;5082344;28;19924;-51
2022/01/10 08:12:26;;;;;;;;;;;1.70;99.90;;;;;;5096183;28;19924;-51
2022/01/10 08:14:53;;;;;;;;;;;1.70;99.90;;;;;;5096209;28;19985;-51
2022/01/10 08:17:20;;;;;;;;;;;1.80;99.90;;;;;;5096167;28;19924;-50
2022/01/10 08:19:46;;;;;;;;;;;1.80;99.90;;;;;;5085194;28;20402;-51
2022/01/10 08:22:13;;;;;;;;;;;1.90;99.90;;;;;;5066980;28;19977;-51
2022/01/10 08:24:41;;;;;;;;;;;1.90;99.90;;;;;;5075052;28;19978;-51
2022/01/10 08:27:08;;;;;;;;;;;2.00;99.90;;;;;;5078510;28;19924;-51
2022/01/10 08:29:35;;;;;;;;;;;2.00;99.90;;;;;;5075019;28;19982;-51
2022/01/10 08:32:02;;;;;;;;;;;2.10;99.90;;;;;;5074430;28;19931;-51
2022/01/10 08:34:29;;;;;;;;;;;2.10;99.90;;;;;;5074030;28;19932;-51
2022/01/10 08:36:56;;;;;;;;;;;2.10;99.90;;;;;;5074740;28;20581;-52
2022/01/10 08:39:23;;;;;;;;;;;2.20;99.90;;;;;;5071053;28;19932;-51
2022/01/10 08:41:51;;;;;;;;;;;2.20;99.90;;;;;;5076792;28;19958;-52
2022/01/10 08:44:18;;;;;;;;;;;2.20;99.90;;;;;;5075297;28;19928;-52
2022/01/10 08:46:45;;;;;;;;;;;2.20;99.90;;;;;;5074664;28;19935;-53
2022/01/10 08:49:13;;;;;;;;;;;2.30;99.90;;;;;;5074698;28;19924;-52
2022/01/10 08:51:40;;;;;;;;;;;2.40;99.90;;;;;;5073780;28;19924;-52
2022/01/10 08:54:07;;;;;;;;;;;2.60;99.90;;;;;;5072229;28;19933;-52
2022/01/10 08:56:34;;;;;;;;;;;2.70;99.90;;;;;;5066084;28;19925;-52
2022/01/10 08:59:02;;;;;;;;;;;2.70;99.90;;;;;;5068283;28;19928;-52
2022/01/10 09:01:30;;;;;;;;;;;2.80;99.90;;;;;;5056348;28;19925;-52
2022/01/10 09:03:57;;;;;;;;;;;2.80;99.90;;;;;;5055187;28;19929;-54
2022/01/10 09:06:23;;;;;;;;;;;2.80;99.90;;;;;;5073701;28;19924;-52
2022/01/10 09:08:51;;;;;;;;;;;2.80;99.90;;;;;;5074158;28;19925;-52
2022/01/10 09:11:18;;;;;;;;;;;2.90;99.90;;;;;;5072987;28;19978;-53
2022/01/10 09:13:45;;;;;;;;;;;3.00;99.90;;;;;;5073649;28;19925;-51
2022/01/10 09:16:14;;;;;;;;;;;3.10;99.90;;;;;;5074491;28;20023;-53
2022/01/10 09:18:41;;;;;;;;;;;3.20;99.90;;;;;;5074301;28;19924;-53
2022/01/10 09:21:08;;;;;;;;;;;3.30;99.90;;;;;;5074775;28;19925;-52
2022/01/10 09:23:36;;;;;;;;;;;3.60;99.90;;;;;;5074496;28;19986;-52
2022/01/10 09:26:03;;;;;;;;;;;3.60;99.90;;;;;;5074713;28;19958;-52
2022/01/10 09:28:31;;;;;;;;;;;3.60;99.90;;;;;;5068155;28;19950;-52
2022/01/10 09:30:58;;;;;;;;;;;3.60;99.90;;;;;;5065251;28;19948;-53
2022/01/10 09:33:26;;;;;;;;;;;3.60;99.90;;;;;;5054466;28;19925;-52
2022/01/10 09:35:53;;;;;;;;;;;3.70;99.90;;;;;;5077467;28;20532;-52
2022/01/10 09:38:23;;;;;;;;;;;3.70;99.90;;;;;;5062272;28;20015;-52
2022/01/10 09:40:50;;;;;;;;;;;3.80;99.90;;;;;;5074296;28;20306;-52
2022/01/10 09:43:16;;;;;;;;;;;4.00;99.90;;;;;;5063517;28;19975;-53
2022/01/10 09:45:45;;;;;;;;;;;3.90;99.90;;;;;;5060647;28;20356;-52
2022/01/10 09:48:11;;;;;;;;;;;3.90;99.90;;;;;;5073325;28;20564;-53
2022/01/10 09:50:40;;;;;;;;;;;3.80;99.90;;;;;;5069684;28;19978;-53
2022/01/10 09:53:07;;;;;;;;;;;3.90;99.90;;;;;;5066724;28;19925;-53
2022/01/10 09:55:34;;;;;;;;;;;3.90;99.90;;;;;;5059358;28;19978;-53
2022/01/10 09:58:03;;;;;;;;;;;4.00;99.90;;;;;;5066356;28;20450;-53
2022/01/10 10:00:30;;;;;;;;;;;4.00;99.90;;;;;;5073827;28;19924;-53
2022/01/10 10:02:56;;;;;;;;;;;3.80;99.90;;;;;;5072037;28;19928;-53
2022/01/10 10:05:23;;;;;;;;;;;3.80;99.90;;;;;;5073225;28;19924;-53
2022/01/10 10:07:52;;;;;;;;;;;3.90;99.90;;;;;;5071558;28;19924;-53
2022/01/10 10:10:19;;;;;;;;;;;3.80;99.90;;;;;;5074467;28;19932;-52
2022/01/10 10:12:47;;;;;;;;;;;4.00;99.90;;;;;;5066085;28;20578;-52
2022/01/10 10:15:17;;;;;;;;;;;4.00;99.90;;;;;;5056706;28;19964;-52
2022/01/10 10:17:45;;;;;;;;;;;3.90;99.90;;;;;;5068398;28;20362;-52
2022/01/10 10:20:14;;;;;;;;;;;3.90;99.90;;;;;;5072904;28;20173;-52
2022/01/10 10:22:41;;;;;;;;;;;3.90;99.90;;;;;;5073102;28;19970;-52
2022/01/10 10:25:10;;;;;;;;;;;3.80;99.90;;;;;;5072165;28;19924;-52
2022/01/10 10:27:37;;;;;;;;;;;3.80;99.90;;;;;;5092348;28;19928;-52
2022/01/10 10:30:06;;;;;;;;;;;3.90;99.90;;;;;;5060983;28;19948;-52
2022/01/10 10:32:35;;;;;;;;;;;4.20;99.90;;;;;;5067713;28;20383;-53
2022/01/10 10:35:04;;;;;;;;;;;4.20;99.90;;;;;;5072284;28;19925;-52
2022/01/10 10:37:31;;;;;;;;;;;4.40;99.90;;;;;;5071782;28;19924;-53
2022/01/10 10:39:58;;;;;;;;;;;4.60;99.90;;;;;;5058816;28;19967;-53
2022/01/10 10:42:29;;;;;;;;;;;4.80;99.90;;;;;;5066591;28;19924;-53
2022/01/10 10:44:56;;;;;;;;;;;4.90;99.90;;;;;;5067287;28;20338;-53
2022/01/10 10:47:26;;;;;;;;;;;4.70;99.90;;;;;;5067376;28;19924;-53
2022/01/10 10:49:57;;;;;;;;;;;4.70;99.90;;;;;;5066501;28;19986;-53
2022/01/10 10:52:24;;;;;;;;;;;4.90;99.90;;;;;;5066540;28;20005;-52
2022/01/10 10:54:50;;;;;;;;;;;5.00;99.90;;;;;;5065033;28;19924;-52
2022/01/10 10:57:17;;;;;;;;;;;5.10;99.90;;;;;;5063650;28;19928;-51
2022/01/10 10:59:46;;;;;;;;;;;5.00;99.90;;;;;;5064138;28;21138;-54
2022/01/10 11:02:13;;;;;;;;;;;4.70;99.90;;;;;;5064844;28;19932;-53
2022/01/10 11:04:41;;;;;;;;;;;4.60;99.90;;;;;;5063279;28;19994;-53
2022/01/10 11:07:08;;;;;;;;;;;4.50;99.90;;;;;;5064092;28;20385;-53
2022/01/10 11:09:34;;;;;;;;;;;4.70;99.90;;;;;;5066443;28;19932;-53
2022/01/10 11:12:01;;;;;;;;;;;4.70;99.90;;;;;;5064098;28;19977;-53
2022/01/10 11:14:28;;;;;;;;;;;4.70;99.90;;;;;;5063079;28;19928;-54
2022/01/10 11:16:57;;;;;;;;;;;4.60;99.90;;;;;;5063525;28;19925;-53
2022/01/10 11:19:26;;;;;;;;;;;4.60;99.90;;;;;;5063588;28;19925;-53
2022/01/10 11:21:54;;;;;;;;;;;4.60;99.90;;;;;;5052265;28;19935;-53
2022/01/10 11:24:39;;;;;;;;;;;4.50;99.90;;;;;;5062724;28;19970;-53
2022/01/10 11:27:08;;;;;;;;;;;4.40;99.90;;;;;;5062809;28;19924;-53
2022/01/10 11:29:41;;;;;;;;;;;4.60;99.90;;;;;;5064423;28;19924;-53
2022/01/10 11:32:09;;;;;;;;;;;4.70;99.90;;;;;;5064058;28;19928;-52
2022/01/10 11:34:36;;;;;;;;;;;4.80;99.90;;;;;;5069971;28;19924;-53
2022/01/10 11:37:03;;;;;;;;;;;4.90;99.90;;;;;;5068069;28;19937;-52
2022/01/10 11:39:35;;;;;;;;;;;4.50;99.90;;;;;;5063739;28;19970;-52
2022/01/10 11:42:19;;;;;;;;;;;4.30;99.90;;;;;;5071398;28;19936;-54
2022/01/10 11:45:07;;;;;;;;;;;4.10;99.90;;;;;;5069766;28;19932;-52
2022/01/10 11:47:56;;;;;;;;;;;4.10;99.90;;;;;;5063067;28;20372;-52
2022/01/10 11:50:27;;;;;;;;;;;4.10;99.90;;;;;;5063177;28;19924;-53
2022/01/10 11:52:55;;;;;;;;;;;4.20;99.90;;;;;;5067081;28;19939;-53
2022/01/10 11:55:30;;;;;;;;;;;4.40;99.90;;;;;;5062030;28;19928;-53
2022/01/10 11:58:02;;;;;;;;;;;4.40;99.90;;;;;;5064342;28;19978;-52
2022/01/10 12:00:34;;;;;;;;;;;4.20;99.90;;;;;;5063676;28;19925;-52
2022/01/10 12:03:02;;;;;;;;;;;4.20;99.90;;;;;;5062356;28;19978;-52
2022/01/10 12:05:30;;;;;;;;;;;4.40;99.90;;;;;;5065070;28;19924;-52
2022/01/10 12:07:57;;;;;;;;;;;4.60;99.90;;;;;;5067921;28;19928;-52
2022/01/10 12:10:24;;;;;;;;;;;4.30;99.90;;;;;;5066955;28;20436;-52
2022/01/10 12:12:54;;;;;;;;;;;4.10;99.90;;;;;;5062774;28;20344;-53
2022/01/10 12:15:21;;;;;;;;;;;4.00;99.90;;;;;;5064032;28;19924;-53
2022/01/10 12:17:48;;;;;;;;;;;3.90;99.90;;;;;;5061196;28;20029;-53
2022/01/10 12:20:16;;;;;;;;;;;4.00;99.90;;;;;;5070314;28;19978;-51
2022/01/10 12:22:43;;;;;;;;;;;4.10;99.90;;;;;;5065324;28;19932;-51
2022/01/10 12:25:10;;;;;;;;;;;4.30;99.90;;;;;;5080874;28;19925;-52
2022/01/10 12:27:36;;;;;;;;;;;4.40;99.90;;;;;;5077237;28;19947;-54
2022/01/10 12:30:04;;;;;;;;;;;4.50;99.90;;;;;;5076334;28;19925;-53
2022/01/10 12:32:33;;;;;;;;;;;4.40;99.90;;;;;;5067624;28;19924;-53
2022/01/10 12:35:00;;;;;;;;;;;4.50;99.90;;;;;;5066263;28;20376;-52
2022/01/10 12:37:29;;;;;;;;;;;4.30;99.90;;;;;;5063186;28;19931;-52
2022/01/10 12:39:56;;;;;;;;;;;4.20;99.90;;;;;;5059104;28;20364;-53
2022/01/10 12:42:26;;;;;;;;;;;4.30;99.90;;;;;;5065115;28;19931;-53
2022/01/10 12:44:52;;;;;;;;;;;4.40;99.90;;;;;;5063504;28;20686;-52
2022/01/10 12:47:19;;;;;;;;;;;4.60;99.90;;;;;;5065584;28;20455;-53
2022/01/10 12:49:47;;;;;;;;;;;4.50;99.90;;;;;;5067341;28;19932;-53
2022/01/10 12:52:14;;;;;;;;;;;4.70;99.90;;;;;;5066239;28;19924;-52
2022/01/10 12:54:42;;;;;;;;;;;4.60;99.90;;;;;;5067564;28;20014;-52
2022/01/10 12:57:09;;;;;;;;;;;4.50;99.90;;;;;;5070370;28;19924;-52
2022/01/10 12:59:37;;;;;;;;;;;4.40;99.90;;;;;;5056627;28;19929;-52
2022/01/10 13:02:06;;;;;;;;;;;4.50;99.90;;;;;;5055040;28;20012;-52
2022/01/10 13:04:34;;;;;;;;;;;4.60;99.90;;;;;;5058171;28;19925;-53
2022/01/10 13:07:02;;;;;;;;;;;4.60;99.90;;;;;;5074099;28;20019;-53
2022/01/10 13:09:29;;;;;;;;;;;4.70;99.90;;;;;;5074493;28;19929;-52
2022/01/10 13:12:12;;;;;;;;;;;4.70;99.90;;;;;;5074854;28;20320;-53
2022/01/10 13:14:40;;;;;;;;;;;4.50;99.90;;;;;;5074463;28;19975;-54
2022/01/10 13:17:08;;;;;;;;;;;4.30;99.90;;;;;;5074514;28;20447;-53
2022/01/10 13:19:36;;;;;;;;;;;4.20;99.90;;;;;;5074475;28;19924;-52
2022/01/10 13:22:06;;;;;;;;;;;4.10;99.90;;;;;;5074640;28;19993;-52
2022/01/10 13:24:34;;;;;;;;;;;4.20;99.90;;;;;;5072892;28;20438;-52
2022/01/10 13:27:04;;;;;;;;;;;4.40;99.90;;;;;;5074742;28;19924;-53
2022/01/10 13:29:35;;;;;;;;;;;4.50;99.90;;;;;;5074440;28;19925;-53
2022/01/10 13:32:19;;;;;;;;;;;4.20;99.90;;;;;;5074567;28;20444;-53
2022/01/10 13:34:47;;;;;;;;;;;4.00;99.90;;;;;;5074230;28;19925;-52
2022/01/10 13:37:13;;;;;;;;;;;4.20;99.90;;;;;;5074298;28;20287;-53
2022/01/10 13:39:40;;;;;;;;;;;4.20;99.90;;;;;;5074056;28;19924;-53
2022/01/10 13:42:10;;;;;;;;;;;4.30;99.90;;;;;;5074368;28;20346;-53
2022/01/10 13:44:49;;;;;;;;;;;4.20;99.90;;;;;;5073567;28;19924;-53
2022/01/10 13:47:17;;;;;;;;;;;4.20;99.90;;;;;;5074353;28;19978;-53
2022/01/10 13:49:44;;;;;;;;;;;4.20;99.90;;;;;;5073065;28;19929;-52
2022/01/10 13:52:11;;;;;;;;;;;4.20;99.90;;;;;;5074057;28;19968;-53
2022/01/10 13:54:38;;;;;;;;;;;4.10;99.90;;;;;;5073652;28;19978;-52
2022/01/10 13:57:16;;;;;;;;;;;4.20;99.90;;;;;;5073956;28;19993;-53
2022/01/10 13:59:42;;;;;;;;;;;4.10;99.90;;;;;;5073411;28;19977;-53
2022/01/10 14:02:10;;;;;;;;;;;4.00;99.90;;;;;;5073966;28;20355;-53
2022/01/10 14:04:37;;;;;;;;;;;4.00;99.90;;;;;;5073819;28;19924;-53
2022/01/10 14:07:07;;;;;;;;;;;4.10;99.90;;;;;;5074036;28;19924;-53
2022/01/10 14:09:34;;;;;;;;;;;4.10;99.90;;;;;;5073462;28;20378;-52
2022/01/10 14:12:02;;;;;;;;;;;4.00;99.90;;;;;;5073761;28;20297;-53
2022/01/10 14:14:31;;;;;;;;;;;4.10;99.90;;;;;;5073338;28;19929;-52
2022/01/10 14:16:58;;;;;;;;;;;4.00;99.90;;;;;;5073512;28;20345;-53
2022/01/10 14:19:25;;;;;;;;;;;3.90;99.90;;;;;;5073520;28;19924;-53
2022/01/10 14:21:52;;;;;;;;;;;4.00;99.90;;;;;;5073666;28;19994;-54
2022/01/10 14:24:19;;;;;;;;;;;4.10;99.90;;;;;;5072999;28;19928;-53
2022/01/10 14:26:46;;;;;;;;;;;4.20;99.90;;;;;;5073445;28;19931;-53
2022/01/10 14:29:13;;;;;;;;;;;4.10;99.90;;;;;;5073090;28;19925;-53
2022/01/10 14:31:41;;;;;;;;;;;4.10;99.90;;;;;;5073247;28;19925;-53
2022/01/10 14:34:08;;;;;;;;;;;3.90;99.90;;;;;;5073357;28;19970;-52
2022/01/10 14:36:35;;;;;;;;;;;3.90;99.90;;;;;;5073703;28;19925;-52
2022/01/10 14:39:02;;;;;;;;;;;3.90;99.90;;;;;;5073140;28;19971;-53
2022/01/10 14:41:29;;;;;;;;;;;4.00;99.90;;;;;;5062806;28;19932;-52
2022/01/10 14:43:55;;;;;;;;;;;3.80;99.90;;;;;;5061836;28;20467;-52
2022/01/10 14:46:23;;;;;;;;;;;3.80;99.90;;;;;;5074069;28;19933;-52
2022/01/10 14:48:51;;;;;;;;;;;3.70;99.90;;;;;;5073798;28;20376;-53
2022/01/10 14:51:18;;;;;;;;;;;3.80;99.90;;;;;;5070029;28;19924;-53
2022/01/10 14:53:45;;;;;;;;;;;3.90;99.90;;;;;;5066508;28;19932;-52